createdAt,value
2022-12-11T00:01:19.642Z,97.52
2022-12-11T00:03:47.730Z,99.11
2022-12-11T00:06:16.212Z,98.64
2022-12-11T00:08:43.606Z,97.75
2022-12-11T00:11:12.981Z,98.28
2022-12-11T00:13:40.288Z,99.25
2022-12-11T00:16:07.829Z,99.12
2022-12-11T00:18:35.484Z,97.53
2022-12-11T00:21:03.774Z,98.02
2022-12-11T00:23:31.130Z,100.00
2022-12-11T00:25:58.724Z,99.14
2022-12-11T00:28:26.047Z,99.79
2022-12-11T00:30:53.484Z,98.62
2022-12-11T00:33:21.062Z,98.96
2022-12-11T00:35:48.668Z,98.31
2022-12-11T00:38:17.000Z,96.92
2022-12-11T00:40:44.658Z,96.48
2022-12-11T00:43:12.097Z,97.23
2022-12-11T00:45:41.217Z,95.99
2022-12-11T00:48:09.285Z,97.28
2022-12-11T00:50:36.734Z,97.56
2022-12-11T00:53:04.614Z,95.26
2022-12-11T00:55:32.352Z,95.89
2022-12-11T00:57:59.711Z,96.39
2022-12-11T01:00:27.231Z,95.24
2022-12-11T01:02:54.911Z,94.77
2022-12-11T01:05:22.319Z,95.62
2022-12-11T01:07:49.689Z,98.40
2022-12-11T01:10:26.435Z,98.32
2022-12-11T01:13:14.141Z,99.30
2022-12-11T01:15:43.962Z,100.00
2022-12-11T01:18:11.974Z,99.98
2022-12-11T01:20:40.117Z,99.41
2022-12-11T01:23:07.809Z,98.92
2022-12-11T01:25:35.942Z,97.51
2022-12-11T01:28:03.435Z,93.99
2022-12-11T01:30:31.138Z,93.70
2022-12-11T01:32:58.524Z,94.47
2022-12-11T01:35:25.868Z,97.00
2022-12-11T01:37:53.532Z,97.29
2022-12-11T01:40:21.292Z,98.17
2022-12-11T01:42:48.621Z,99.33
2022-12-11T01:45:24.645Z,96.31
2022-12-11T01:47:57.029Z,94.97
2022-12-11T01:50:24.750Z,97.63
2022-12-11T01:52:52.062Z,98.43
2022-12-11T01:55:19.430Z,98.33
2022-12-11T01:57:47.699Z,98.24
2022-12-11T02:00:15.488Z,96.67
2022-12-11T02:02:44.855Z,97.66
2022-12-11T02:05:12.899Z,97.06
2022-12-11T02:07:44.530Z,99.01
2022-12-11T02:10:12.708Z,98.29
2022-12-11T02:12:57.786Z,97.12
2022-12-11T02:15:31.558Z,97.93
2022-12-11T02:18:28.301Z,98.01
2022-12-11T02:21:03.990Z,99.46
2022-12-11T02:23:36.760Z,98.17
2022-12-11T02:26:25.439Z,98.13
2022-12-11T02:29:03.020Z,96.64
2022-12-11T02:31:47.895Z,97.95
2022-12-11T02:34:22.369Z,95.40
2022-12-11T02:36:52.687Z,94.45
2022-12-11T02:39:20.015Z,94.76
2022-12-11T02:41:50.067Z,96.55
2022-12-11T02:44:19.911Z,97.11
2022-12-11T02:46:47.337Z,97.43
2022-12-11T02:49:14.658Z,97.46
2022-12-11T02:51:42.739Z,96.79
2022-12-11T02:54:20.885Z,97.62
2022-12-11T02:56:52.703Z,98.50
2022-12-11T02:59:23.853Z,99.42
2022-12-11T03:01:51.481Z,99.69
2022-12-11T03:04:18.844Z,100.00
2022-12-11T03:06:48.361Z,99.43
2022-12-11T03:09:15.958Z,96.71
2022-12-11T03:11:43.302Z,93.93
2022-12-11T03:14:11.403Z,94.85
2022-12-11T03:16:43.102Z,96.02
2022-12-11T03:19:24.251Z,95.65
2022-12-11T03:21:54.426Z,94.61
2022-12-11T03:24:47.892Z,95.65
2022-12-11T03:27:28.271Z,99.43
2022-12-11T03:30:21.003Z,99.51
2022-12-11T03:33:12.031Z,99.01
2022-12-11T03:35:41.281Z,99.38
2022-12-11T03:38:16.404Z,99.22
2022-12-11T03:40:44.523Z,98.06
2022-12-11T03:43:12.238Z,96.17
2022-12-11T03:45:39.669Z,95.79
2022-12-11T03:48:07.338Z,97.22
2022-12-11T03:50:34.927Z,96.66
2022-12-11T03:53:02.350Z,97.36
2022-12-11T03:55:29.890Z,97.71
2022-12-11T03:57:57.577Z,95.46
2022-12-11T04:00:24.999Z,97.10
2022-12-11T04:03:18.920Z,96.06
2022-12-11T04:05:50.900Z,96.47
2022-12-11T04:08:20.543Z,96.83
2022-12-11T04:10:48.290Z,97.38
2022-12-11T04:13:15.677Z,98.01
2022-12-11T04:15:43.309Z,97.62
2022-12-11T04:18:29.703Z,96.95
2022-12-11T04:21:15.651Z,97.71
2022-12-11T04:24:01.565Z,97.89
2022-12-11T04:26:29.199Z,99.44
2022-12-11T04:28:56.540Z,99.06
2022-12-11T04:31:23.964Z,98.32
2022-12-11T04:33:51.602Z,98.28
2022-12-11T04:36:18.917Z,99.18
2022-12-11T04:38:46.265Z,99.06
2022-12-11T04:41:14.490Z,99.53
2022-12-11T04:43:45.025Z,98.32
2022-12-11T04:46:17.711Z,98.52
2022-12-11T04:48:45.547Z,99.55
2022-12-11T04:51:12.883Z,100.00
2022-12-11T04:53:40.194Z,99.20
2022-12-11T04:56:08.867Z,99.34
2022-12-11T04:58:36.649Z,99.25
2022-12-11T05:01:10.927Z,99.36
2022-12-11T05:03:38.671Z,98.09
2022-12-11T05:06:06.221Z,99.71
2022-12-11T05:08:34.354Z,100.00
2022-12-11T05:11:03.247Z,100.00
2022-12-11T05:13:30.700Z,99.56
2022-12-11T05:15:58.360Z,98.87
2022-12-11T05:18:26.214Z,98.19
2022-12-11T05:21:00.590Z,98.86
2022-12-11T05:23:28.316Z,99.69
2022-12-11T05:25:57.165Z,100.00
2022-12-11T05:28:27.548Z,99.50
2022-12-11T05:30:56.843Z,99.98
2022-12-11T05:33:24.513Z,100.00
2022-12-11T05:35:51.899Z,100.00
2022-12-11T05:38:19.544Z,99.84
2022-12-11T05:40:58.844Z,99.70
2022-12-11T05:43:27.269Z,99.97
2022-12-11T05:45:54.601Z,100.00
2022-12-11T05:48:22.057Z,100.00
2022-12-11T05:50:59.860Z,99.76
2022-12-11T05:53:27.402Z,100.00
2022-12-11T05:55:54.988Z,100.00
2022-12-11T05:58:22.322Z,99.88
2022-12-11T06:00:49.861Z,100.00
2022-12-11T06:03:17.517Z,99.34
2022-12-11T06:05:44.866Z,98.82
2022-12-11T06:08:12.321Z,99.28
2022-12-11T06:10:45.790Z,99.67
2022-12-11T06:13:13.783Z,100.00
2022-12-11T06:15:41.465Z,99.83
2022-12-11T06:18:08.812Z,99.05
2022-12-11T06:20:36.412Z,98.29
2022-12-11T06:23:04.012Z,98.41
2022-12-11T06:25:31.343Z,98.45
2022-12-11T06:27:58.814Z,98.30
2022-12-11T06:30:38.732Z,98.66
2022-12-11T06:33:07.171Z,98.99
2022-12-11T06:35:41.449Z,98.90
2022-12-11T06:38:10.615Z,98.09
2022-12-11T06:40:38.379Z,98.80
2022-12-11T06:43:05.739Z,98.71
2022-12-11T06:45:33.212Z,98.54
2022-12-11T06:48:00.942Z,98.71
2022-12-11T06:50:28.286Z,99.23
2022-12-11T06:52:58.694Z,99.42
2022-12-11T06:55:26.326Z,98.58
2022-12-11T06:57:53.974Z,98.31
2022-12-11T07:00:21.369Z,97.05
2022-12-11T07:02:50.760Z,97.92
2022-12-11T07:05:18.125Z,98.09
2022-12-11T07:07:45.576Z,97.90
2022-12-11T07:10:13.308Z,97.53
2022-12-11T07:12:40.624Z,97.21
2022-12-11T07:15:08.543Z,95.22
2022-12-11T07:17:36.586Z,95.20
2022-12-11T07:20:04.478Z,95.83
2022-12-11T07:22:31.973Z,95.56
2022-12-11T07:24:59.930Z,96.10
2022-12-11T07:27:27.261Z,96.31
2022-12-11T07:29:55.560Z,97.18
2022-12-11T07:32:23.335Z,95.85
2022-12-11T07:34:52.124Z,93.80
2022-12-11T07:37:19.621Z,94.07
2022-12-11T07:39:48.990Z,93.06
2022-12-11T07:42:16.388Z,93.42
2022-12-11T07:44:43.764Z,92.97
2022-12-11T07:47:11.533Z,93.74
2022-12-11T07:49:38.849Z,90.35
2022-12-11T07:52:06.188Z,92.57
2022-12-11T07:54:33.958Z,92.29
2022-12-11T07:57:01.416Z,92.00
2022-12-11T07:59:28.797Z,90.62
2022-12-11T08:01:56.549Z,89.55
2022-12-11T08:04:24.171Z,89.18
2022-12-11T08:06:51.882Z,89.85
2022-12-11T08:09:22.655Z,88.64
2022-12-11T08:11:50.822Z,88.64
2022-12-11T08:14:18.662Z,88.08
2022-12-11T08:16:46.140Z,88.12
2022-12-11T08:19:13.818Z,86.14
2022-12-11T08:21:41.150Z,87.34
2022-12-11T08:24:08.957Z,86.25
2022-12-11T08:26:36.536Z,88.11
2022-12-11T08:29:03.992Z,86.27
2022-12-11T08:31:33.336Z,85.55
2022-12-11T08:34:01.015Z,86.76
2022-12-11T08:36:28.611Z,86.07
2022-12-11T08:38:56.326Z,85.28
2022-12-11T08:41:28.327Z,84.57
2022-12-11T08:43:56.301Z,85.51
2022-12-11T08:46:25.524Z,84.85
2022-12-11T08:48:53.214Z,85.79
2022-12-11T08:51:22.859Z,85.18
2022-12-11T08:53:51.133Z,85.05
2022-12-11T08:56:20.087Z,84.27
2022-12-11T08:58:47.669Z,84.33
2022-12-11T09:01:22.618Z,84.83
2022-12-11T09:03:50.441Z,84.25
2022-12-11T09:06:19.299Z,82.43
2022-12-11T09:08:51.892Z,84.10
2022-12-11T09:11:23.976Z,85.96
2022-12-11T09:13:51.324Z,84.78
2022-12-11T09:16:19.835Z,84.46
2022-12-11T09:18:48.014Z,84.31
2022-12-11T09:21:17.062Z,83.83
2022-12-11T09:23:44.422Z,83.32
2022-12-11T09:26:13.703Z,82.76
2022-12-11T09:28:45.771Z,83.79
2022-12-11T09:31:27.248Z,83.95
2022-12-11T09:33:56.449Z,82.57
2022-12-11T09:36:24.185Z,84.52
2022-12-11T09:38:51.687Z,84.05
2022-12-11T09:41:22.079Z,84.20
2022-12-11T09:44:03.639Z,83.58
2022-12-11T09:46:34.171Z,84.29
2022-12-11T09:49:02.839Z,83.41
2022-12-11T09:51:44.049Z,83.01
2022-12-11T09:54:11.860Z,83.74
2022-12-11T09:56:56.532Z,84.11
2022-12-11T09:59:52.797Z,84.16
2022-12-11T10:02:33.983Z,84.10
2022-12-11T10:05:08.820Z,83.18
2022-12-11T10:07:38.739Z,84.04
2022-12-11T10:10:09.400Z,84.05
2022-12-11T10:12:48.706Z,82.36
2022-12-11T10:15:37.440Z,82.63
2022-12-11T10:18:07.030Z,83.81
2022-12-11T10:20:39.105Z,83.59
2022-12-11T10:23:07.598Z,83.44
2022-12-11T10:25:44.956Z,84.10
2022-12-11T10:28:16.689Z,81.84
2022-12-11T10:31:08.967Z,83.48
2022-12-11T10:33:42.080Z,83.80
2022-12-11T10:36:09.724Z,84.34
2022-12-11T10:38:44.657Z,82.12
2022-12-11T10:41:21.157Z,82.58
2022-12-11T10:43:49.842Z,82.44
2022-12-11T10:46:21.368Z,80.88
2022-12-11T10:48:56.485Z,82.27
2022-12-11T10:51:42.087Z,81.08
2022-12-11T10:54:29.131Z,81.04
2022-12-11T10:56:56.818Z,82.02
2022-12-11T10:59:34.132Z,83.28
2022-12-11T11:02:02.103Z,82.08
2022-12-11T11:04:35.902Z,82.09
2022-12-11T11:07:13.483Z,81.92
2022-12-11T11:09:40.972Z,79.95
2022-12-11T11:12:26.133Z,80.62
2022-12-11T11:15:01.122Z,81.93
2022-12-11T11:17:34.454Z,82.29
2022-12-11T11:20:07.491Z,82.02
2022-12-11T11:22:39.080Z,81.92
2022-12-11T11:25:06.896Z,81.10
2022-12-11T11:27:42.788Z,80.24
2022-12-11T11:30:36.809Z,80.84
2022-12-11T11:33:18.676Z,81.95
2022-12-11T11:35:59.356Z,80.53
2022-12-11T11:38:31.458Z,80.24
2022-12-11T11:41:21.512Z,81.04
2022-12-11T11:43:49.935Z,80.62
2022-12-11T11:46:45.121Z,80.69
2022-12-11T11:49:32.453Z,80.65
2022-12-11T11:52:11.818Z,80.96
2022-12-11T11:55:21.693Z,80.14
2022-12-11T11:58:01.046Z,80.00
2022-12-11T12:00:33.707Z,78.90
2022-12-11T12:03:15.456Z,80.35
2022-12-11T12:05:57.935Z,78.38
2022-12-11T12:08:47.570Z,77.51
2022-12-11T12:11:46.635Z,78.49
2022-12-11T12:14:50.463Z,79.28
2022-12-11T12:17:17.527Z,77.70
2022-12-11T12:20:06.285Z,77.75
2022-12-11T12:22:58.578Z,77.90
2022-12-11T12:25:39.664Z,77.60
2022-12-11T12:28:29.450Z,77.54
2022-12-11T12:31:22.014Z,77.41
2022-12-11T12:34:14.189Z,76.86
2022-12-11T12:37:12.333Z,76.47
2022-12-11T12:39:48.356Z,77.75
2022-12-11T12:42:48.259Z,78.01
2022-12-11T12:45:21.340Z,77.07
2022-12-11T12:47:53.157Z,77.51
2022-12-11T12:50:23.218Z,77.79
2022-12-11T12:52:51.349Z,76.62
2022-12-11T12:55:26.304Z,77.43
2022-12-11T12:58:00.275Z,77.75
2022-12-11T13:00:41.348Z,77.21
2022-12-11T13:03:29.899Z,77.29
2022-12-11T13:06:02.415Z,76.41
2022-12-11T13:08:49.017Z,77.04
2022-12-11T13:11:17.720Z,77.55
2022-12-11T13:14:15.343Z,76.37
2022-12-11T13:16:43.570Z,76.90
2022-12-11T13:19:42.295Z,77.56
2022-12-11T13:22:13.050Z,75.76
2022-12-11T13:24:56.835Z,77.00
2022-12-11T13:27:30.072Z,77.10
2022-12-11T13:30:05.986Z,77.19
2022-12-11T13:32:33.523Z,75.99
2022-12-11T13:35:05.500Z,76.39
2022-12-11T13:37:38.845Z,75.71
2022-12-11T13:40:09.324Z,75.84
2022-12-11T13:42:40.911Z,76.47
2022-12-11T13:45:19.970Z,76.35
2022-12-11T13:47:47.832Z,75.83
2022-12-11T13:50:22.563Z,76.05
2022-12-11T13:52:57.664Z,75.35
2022-12-11T13:55:27.175Z,74.13
2022-12-11T13:57:54.558Z,73.29
2022-12-11T14:00:23.880Z,74.73
2022-12-11T14:02:52.340Z,75.29
2022-12-11T14:05:19.744Z,75.78
2022-12-11T14:07:51.920Z,75.21
2022-12-11T14:10:20.459Z,75.81
2022-12-11T14:12:55.837Z,75.04
2022-12-11T14:15:23.666Z,75.96
2022-12-11T14:17:52.057Z,76.10
2022-12-11T14:20:22.740Z,75.22
2022-12-11T14:22:50.492Z,74.43
2022-12-11T14:25:25.225Z,75.54
2022-12-11T14:27:54.353Z,75.46
2022-12-11T14:30:31.645Z,76.37
2022-12-11T14:33:03.421Z,76.62
2022-12-11T14:35:38.931Z,75.50
2022-12-11T14:38:18.082Z,75.64
2022-12-11T14:40:47.102Z,76.29
2022-12-11T14:43:19.854Z,76.61
2022-12-11T14:45:48.569Z,75.05
2022-12-11T14:48:22.616Z,76.79
2022-12-11T14:50:51.999Z,75.87
2022-12-11T14:53:25.255Z,76.32
2022-12-11T14:55:52.776Z,74.00
2022-12-11T14:58:24.868Z,74.69
2022-12-11T15:00:57.912Z,75.48
2022-12-11T15:03:29.789Z,75.79
2022-12-11T15:05:57.564Z,76.28
2022-12-11T15:08:30.368Z,75.74
2022-12-11T15:10:58.037Z,75.23
2022-12-11T15:13:25.419Z,76.43
2022-12-11T15:15:53.041Z,74.94
2022-12-11T15:18:29.837Z,74.48
2022-12-11T15:20:59.440Z,74.04
2022-12-11T15:23:27.694Z,75.26
2022-12-11T15:25:56.458Z,75.72
2022-12-11T15:28:29.650Z,74.96
2022-12-11T15:30:59.435Z,75.36
2022-12-11T15:33:32.532Z,76.20
2022-12-11T15:36:02.735Z,75.45
2022-12-11T15:38:37.681Z,74.10
2022-12-11T15:41:05.664Z,75.66
2022-12-11T15:43:35.981Z,76.14
2022-12-11T15:46:03.858Z,75.80
2022-12-11T15:48:31.512Z,75.51
2022-12-11T15:50:59.013Z,75.88
2022-12-11T15:53:26.330Z,74.95
2022-12-11T15:55:54.177Z,74.01
2022-12-11T15:58:23.195Z,73.63
2022-12-11T16:00:50.664Z,73.98
2022-12-11T16:03:18.981Z,74.99
2022-12-11T16:05:46.765Z,74.01
2022-12-11T16:08:15.255Z,74.60
2022-12-11T16:10:43.423Z,74.75
2022-12-11T16:13:11.427Z,75.61
2022-12-11T16:15:39.557Z,74.78
2022-12-11T16:18:12.173Z,75.44
2022-12-11T16:20:39.990Z,75.20
2022-12-11T16:23:07.878Z,74.12
2022-12-11T16:25:37.439Z,75.50
2022-12-11T16:28:04.937Z,75.27
2022-12-11T16:30:33.542Z,73.61
2022-12-11T16:33:00.912Z,74.48
2022-12-11T16:35:28.802Z,74.60
2022-12-11T16:37:56.435Z,73.98
2022-12-11T16:40:24.088Z,74.82
2022-12-11T16:42:51.709Z,75.64
2022-12-11T16:45:23.966Z,76.69
2022-12-11T16:47:51.405Z,75.25
2022-12-11T16:50:19.290Z,74.72
2022-12-11T16:52:47.196Z,74.61
2022-12-11T16:55:15.605Z,75.60
2022-12-11T16:57:43.263Z,74.43
2022-12-11T17:00:12.555Z,74.64
2022-12-11T17:02:40.434Z,75.89
2022-12-11T17:05:08.163Z,74.08
2022-12-11T17:07:35.507Z,75.61
2022-12-11T17:10:03.259Z,73.66
2022-12-11T17:12:31.240Z,75.50
2022-12-11T17:14:58.632Z,74.40
2022-12-11T17:17:26.055Z,75.32
2022-12-11T17:19:54.075Z,75.20
2022-12-11T17:22:21.893Z,76.28
2022-12-11T17:24:49.640Z,77.28
2022-12-11T17:27:17.461Z,76.56
2022-12-11T17:29:44.909Z,76.84
2022-12-11T17:32:12.272Z,74.99
2022-12-11T17:34:39.907Z,75.18
2022-12-11T17:37:07.472Z,75.35
2022-12-11T17:39:34.781Z,76.94
2022-12-11T17:42:02.397Z,76.02
2022-12-11T17:44:30.634Z,76.74
2022-12-11T17:46:58.483Z,77.15
2022-12-11T17:49:26.209Z,75.22
2022-12-11T17:51:55.249Z,75.33
2022-12-11T17:54:23.639Z,76.05
2022-12-11T17:56:51.381Z,75.52
2022-12-11T17:59:18.717Z,75.81
2022-12-11T18:01:46.099Z,75.76
2022-12-11T18:04:13.830Z,75.64
2022-12-11T18:06:41.238Z,76.49
2022-12-11T18:09:08.819Z,76.94
2022-12-11T18:11:36.568Z,76.23
2022-12-11T18:14:03.918Z,77.09
2022-12-11T18:16:36.817Z,75.37
2022-12-11T18:19:05.480Z,76.25
2022-12-11T18:21:33.867Z,76.54
2022-12-11T18:24:01.325Z,76.59
2022-12-11T18:26:29.152Z,77.20
2022-12-11T18:28:56.521Z,77.94
2022-12-11T18:31:23.990Z,77.73
2022-12-11T18:33:52.158Z,78.05
2022-12-11T18:36:19.668Z,78.20
2022-12-11T18:38:47.951Z,77.55
2022-12-11T18:41:16.144Z,75.17
2022-12-11T18:43:43.501Z,75.92
2022-12-11T18:46:13.981Z,77.30
2022-12-11T18:48:42.505Z,76.34
2022-12-11T18:51:12.254Z,77.61
2022-12-11T18:53:39.683Z,78.38
2022-12-11T18:56:08.896Z,78.34
2022-12-11T18:58:36.283Z,78.16
2022-12-11T19:01:11.477Z,78.28
2022-12-11T19:03:39.185Z,79.66
2022-12-11T19:06:08.482Z,79.98
2022-12-11T19:08:35.970Z,80.56
2022-12-11T19:11:03.636Z,79.49
2022-12-11T19:13:31.142Z,76.92
2022-12-11T19:15:58.949Z,78.68
2022-12-11T19:18:26.901Z,79.21
2022-12-11T19:21:03.309Z,76.93
2022-12-11T19:23:34.359Z,78.97
2022-12-11T19:26:01.734Z,80.01
2022-12-11T19:28:29.045Z,78.54
2022-12-11T19:30:56.738Z,79.25
2022-12-11T19:33:24.132Z,78.82
2022-12-11T19:36:10.340Z,78.09
2022-12-11T19:38:38.185Z,78.53
2022-12-11T19:41:13.360Z,78.31
2022-12-11T19:43:40.999Z,78.81
2022-12-11T19:46:08.437Z,78.27
2022-12-11T19:48:37.537Z,77.62
2022-12-11T19:51:09.541Z,77.48
2022-12-11T19:53:37.240Z,79.37
2022-12-11T19:56:05.081Z,77.06
2022-12-11T19:58:32.482Z,78.23
2022-12-11T20:01:00.275Z,79.72
2022-12-11T20:03:28.204Z,79.01
2022-12-11T20:06:08.051Z,78.80
2022-12-11T20:08:44.862Z,78.70
2022-12-11T20:11:17.833Z,79.59
2022-12-11T20:13:47.279Z,79.17
2022-12-11T20:16:15.502Z,78.92
2022-12-11T20:18:42.956Z,79.27
2022-12-11T20:21:13.122Z,78.21
2022-12-11T20:23:41.746Z,78.35
2022-12-11T20:26:16.804Z,79.76
2022-12-11T20:28:46.569Z,79.90
2022-12-11T20:31:19.950Z,79.54
2022-12-11T20:33:49.236Z,80.70
2022-12-11T20:36:17.459Z,78.87
2022-12-11T20:38:45.076Z,80.77
2022-12-11T20:41:14.201Z,81.46
2022-12-11T20:43:41.523Z,81.38
2022-12-11T20:46:09.923Z,81.01
2022-12-11T20:48:38.670Z,83.19
2022-12-11T20:51:06.731Z,82.11
2022-12-11T20:53:34.929Z,82.76
2022-12-11T20:56:06.304Z,82.67
2022-12-11T20:58:33.741Z,83.77
2022-12-11T21:01:01.066Z,83.63
2022-12-11T21:03:29.702Z,82.76
2022-12-11T21:05:57.038Z,82.23
2022-12-11T21:08:24.389Z,81.01
2022-12-11T21:10:52.029Z,82.00
2022-12-11T21:13:19.413Z,82.69
2022-12-11T21:15:46.861Z,83.97
2022-12-11T21:18:14.447Z,84.80
2022-12-11T21:20:41.749Z,84.55
2022-12-11T21:23:09.193Z,84.69
2022-12-11T21:25:38.337Z,83.94
2022-12-11T21:28:05.718Z,82.95
2022-12-11T21:30:33.077Z,84.58
2022-12-11T21:33:01.480Z,84.18
2022-12-11T21:35:28.864Z,83.88
2022-12-11T21:37:56.183Z,85.62
2022-12-11T21:40:23.782Z,85.82
2022-12-11T21:42:51.872Z,86.41
2022-12-11T21:45:59.178Z,84.91
2022-12-11T21:48:06.798Z,86.03
2022-12-11T21:50:34.144Z,85.85
2022-12-11T21:53:02.217Z,85.33
2022-12-11T21:55:29.834Z,84.92
2022-12-11T21:57:57.154Z,85.76
2022-12-11T22:00:24.772Z,84.88
2022-12-11T22:02:52.446Z,83.58
2022-12-11T22:05:19.886Z,84.39
2022-12-11T22:07:47.264Z,85.33
2022-12-11T22:10:14.903Z,86.17
2022-12-11T22:12:42.250Z,85.86
2022-12-11T22:15:09.905Z,85.78
2022-12-11T22:17:37.821Z,85.23
2022-12-11T22:20:06.369Z,86.38
2022-12-11T22:22:33.813Z,86.72
2022-12-11T22:25:03.520Z,88.38
2022-12-11T22:27:30.860Z,87.45
2022-12-11T22:29:58.202Z,93.48
2022-12-11T22:32:27.470Z,93.25
2022-12-11T22:34:56.284Z,93.72
2022-12-11T22:37:24.098Z,90.69
2022-12-11T22:39:51.703Z,87.70
2022-12-11T22:42:19.013Z,90.04
2022-12-11T22:44:46.759Z,88.84
2022-12-11T22:47:16.214Z,89.43
2022-12-11T22:49:43.608Z,88.91
2022-12-11T22:52:10.956Z,89.46
2022-12-11T22:54:42.054Z,88.57
2022-12-11T22:57:09.416Z,89.11
2022-12-11T22:59:36.788Z,89.28
2022-12-11T23:02:04.441Z,88.80
2022-12-11T23:04:31.965Z,89.60
2022-12-11T23:06:59.345Z,88.71
2022-12-11T23:09:26.953Z,89.56
2022-12-11T23:11:55.796Z,90.57
2022-12-11T23:14:23.175Z,89.28
2022-12-11T23:16:50.808Z,88.35
2022-12-11T23:19:23.735Z,89.06
2022-12-11T23:21:53.143Z,87.73
2022-12-11T23:24:20.515Z,88.80
2022-12-11T23:26:48.126Z,88.20
2022-12-11T23:29:15.775Z,88.92
2022-12-11T23:31:43.134Z,87.63
2022-12-11T23:34:10.518Z,87.75
2022-12-11T23:36:38.150Z,85.61
2022-12-11T23:39:05.492Z,86.55
2022-12-11T23:41:32.846Z,85.06
2022-12-11T23:44:00.454Z,86.60
2022-12-11T23:46:27.893Z,84.26
2022-12-11T23:48:55.465Z,83.65
2022-12-11T23:51:23.839Z,84.93
2022-12-11T23:53:51.345Z,85.41
2022-12-11T23:56:21.122Z,83.58
2022-12-11T23:58:48.857Z,82.90
